Time;durP1;ratioP1;P1;durP2;ratioP2;P2;SDS_P1;SDS_P2;PMS_P1;PMS_P2;Temp;Humidity;BMP_temperature;BMP_pressure;BME280_temperature;BME280_humidity;BME280_pressure;Samples;Min_cycle;Max_cycle;Signal;HPM_P1;HPM_P2
2021/04/13 00:00:31;;;;;;;16.00;8.68;;;-0.50;99.90;;;;;;5081806;28;20127;-59
2021/04/13 00:02:59;;;;;;;16.05;8.10;;;-0.50;99.90;;;;;;5079533;28;20631;-60
2021/04/13 00:05:33;;;;;;;14.65;9.07;;;-0.50;99.90;;;;;;5084899;28;20059;-61
2021/04/13 00:08:10;;;;;;;18.27;10.02;;;-0.50;99.90;;;;;;5102396;28;20043;-61
2021/04/13 00:10:47;;;;;;;15.18;9.20;;;-0.50;99.90;;;;;;5102954;28;20071;-61
2021/04/13 00:13:14;;;;;;;16.52;9.18;;;-0.50;99.90;;;;;;5101942;28;20048;-61
2021/04/13 00:15:50;;;;;;;19.67;10.52;;;-0.50;99.90;;;;;;5089549;28;20043;-60
2021/04/13 00:18:24;;;;;;;17.45;9.13;;;-0.60;99.90;;;;;;5089582;28;20055;-62
2021/04/13 00:21:15;;;;;;;15.52;8.90;;;-0.50;99.90;;;;;;5089036;28;20039;-62
2021/04/13 00:23:42;;;;;;;15.75;9.45;;;-0.60;99.90;;;;;;5082849;28;20028;-62
2021/04/13 00:26:10;;;;;;;18.35;10.68;;;-0.60;99.90;;;;;;5088690;28;20077;-62
2021/04/13 00:28:47;;;;;;;17.25;9.68;;;-0.60;99.90;;;;;;5088884;28;20048;-62
2021/04/13 00:31:41;;;;;;;19.27;11.40;;;-0.60;99.90;;;;;;5087837;28;21012;-62
2021/04/13 00:34:19;;;;;;;24.50;11.88;;;-0.60;99.90;;;;;;5087362;28;20052;-58
2021/04/13 00:36:45;;;;;;;18.25;10.13;;;-0.60;99.90;;;;;;5089060;28;20052;-62
2021/04/13 00:39:23;;;;;;;15.45;9.48;;;-0.60;99.90;;;;;;5088807;28;20071;-60
2021/04/13 00:41:55;;;;;;;17.48;10.55;;;-0.60;99.90;;;;;;5088665;28;20127;-62
2021/04/13 00:44:22;;;;;;;19.90;11.85;;;-0.60;99.90;;;;;;5088558;28;20052;-61
2021/04/13 00:47:00;;;;;;;35.22;12.38;;;-0.60;99.90;;;;;;5088197;28;20111;-58
2021/04/13 00:49:29;;;;;;;19.55;10.63;;;-0.60;99.90;;;;;;5088370;28;20035;-61
2021/04/13 00:52:17;;;;;;;15.05;9.15;;;-0.60;99.90;;;;;;5087733;28;20348;-59
2021/04/13 00:54:52;;;;;;;22.55;10.45;;;-0.70;99.90;;;;;;5088107;28;20047;-58
2021/04/13 00:57:22;;;;;;;18.05;10.23;;;-0.70;99.90;;;;;;5083587;28;20036;-60
2021/04/13 00:59:50;;;;;;;22.98;11.55;;;-0.60;99.90;;;;;;5088455;28;20119;-61
2021/04/13 01:02:23;;;;;;;24.85;12.00;;;-0.70;99.90;;;;;;5085487;28;20043;-62
2021/04/13 01:04:57;;;;;;;17.67;10.40;;;-0.70;99.90;;;;;;5087505;28;20032;-59
2021/04/13 01:07:33;;;;;;;25.73;14.00;;;-0.70;99.90;;;;;;5069209;28;20048;-61
2021/04/13 01:10:14;;;;;;;27.85;16.05;;;-0.60;99.90;;;;;;5068126;28;20044;-60
2021/04/13 01:12:43;;;;;;;21.70;13.13;;;-0.60;99.90;;;;;;5066711;28;20052;-61
2021/04/13 01:15:13;;;;;;;26.15;14.93;;;-0.50;99.90;;;;;;5067587;28;20041;-61
2021/04/13 01:17:40;;;;;;;27.55;14.40;;;-0.60;99.90;;;;;;5066952;28;20458;-62
2021/04/13 01:20:33;;;;;;;27.73;14.68;;;-0.50;99.90;;;;;;5067465;28;20118;-62
2021/04/13 01:23:04;;;;;;;27.23;15.02;;;-0.40;99.90;;;;;;5066971;28;20504;-61
2021/04/13 01:25:39;;;;;;;27.92;15.80;;;-0.40;99.90;;;;;;5086918;28;20040;-61
2021/04/13 01:28:05;;;;;;;32.42;17.63;;;-0.50;99.90;;;;;;5087626;28;20680;-61
2021/04/13 01:30:42;;;;;;;36.55;20.20;;;-0.50;99.90;;;;;;5086615;28;20036;-61
2021/04/13 01:33:36;;;;;;;31.52;16.45;;;-0.50;99.90;;;;;;5085739;28;20513;-61
2021/04/13 01:36:19;;;;;;;34.05;19.17;;;-0.50;99.90;;;;;;5088081;28;20044;-61
2021/04/13 01:39:16;;;;;;;41.95;20.02;;;-0.50;99.90;;;;;;5087505;28;20043;-60
2021/04/13 01:41:58;;;;;;;29.92;17.75;;;-0.50;99.90;;;;;;5087102;28;20036;-61
2021/04/13 01:44:33;;;;;;;38.50;19.70;;;-0.50;99.90;;;;;;5087392;28;20757;-61
2021/04/13 01:47:01;;;;;;;35.05;18.88;;;-0.50;99.90;;;;;;5086901;28;20530;-62
2021/04/13 01:49:29;;;;;;;33.95;17.75;;;-0.50;99.90;;;;;;5087105;28;20043;-62
2021/04/13 01:51:55;;;;;;;41.58;20.77;;;-0.50;99.90;;;;;;5086196;28;20051;-61
2021/04/13 01:54:21;;;;;;;35.30;17.70;;;-0.50;99.90;;;;;;5087145;28;20525;-61
2021/04/13 01:57:14;;;;;;;37.40;18.13;;;-0.50;99.90;;;;;;5076075;28;20044;-60
2021/04/13 01:59:53;;;;;;;45.88;20.77;;;-0.60;99.90;;;;;;5067240;28;20044;-60
2021/04/13 02:02:29;;;;;;;38.28;19.52;;;-0.60;99.90;;;;;;5065927;28;20285;-62
2021/04/13 02:05:02;;;;;;;37.55;19.63;;;-0.60;99.90;;;;;;5067457;28;20044;-61
2021/04/13 02:07:59;;;;;;;36.78;19.23;;;-0.60;99.90;;;;;;5066294;28;20055;-62
2021/04/13 02:10:35;;;;;;;34.97;18.92;;;-0.60;99.90;;;;;;5067096;28;20037;-59
2021/04/13 02:13:10;;;;;;;47.92;20.58;;;-0.60;99.90;;;;;;5069886;28;20404;-60
2021/04/13 02:16:04;;;;;;;32.10;18.85;;;-0.60;99.90;;;;;;5078345;28;20047;-60
2021/04/13 02:18:39;;;;;;;36.13;20.15;;;-0.60;99.90;;;;;;5080453;28;20055;-61
2021/04/13 02:21:14;;;;;;;39.95;21.48;;;-0.60;99.90;;;;;;5086619;28;20438;-62
2021/04/13 02:23:46;;;;;;;36.35;20.20;;;-0.60;99.90;;;;;;5086195;28;20048;-61
2021/04/13 02:26:13;;;;;;;32.63;17.60;;;-0.60;99.90;;;;;;5086896;28;20068;-60
2021/04/13 02:28:40;;;;;;;34.42;19.25;;;-0.60;99.90;;;;;;5087294;28;20050;-62
2021/04/13 02:31:08;;;;;;;38.40;17.90;;;-0.60;99.90;;;;;;5086446;28;20499;-61
2021/04/13 02:33:38;;;;;;;33.78;19.48;;;-0.50;99.90;;;;;;5085919;28;20081;-61
2021/04/13 02:36:18;;;;;;;34.65;19.67;;;-0.50;99.90;;;;;;5086926;28;20131;-62
2021/04/13 02:38:49;;;;;;;35.72;20.15;;;-0.50;99.90;;;;;;5086914;28;20043;-62
2021/04/13 02:41:22;;;;;;;33.92;15.10;;;-0.50;99.90;;;;;;5085943;28;20040;-57
2021/04/13 02:43:51;;;;;;;31.48;16.42;;;-0.40;99.90;;;;;;5086389;28;20040;-61
2021/04/13 02:46:26;;;;;;;32.95;16.65;;;-0.30;99.90;;;;;;5086590;28;20085;-60
2021/04/13 02:49:09;;;;;;;33.03;17.23;;;-0.40;99.90;;;;;;5086637;28;20134;-62
2021/04/13 02:51:39;;;;;;;31.85;16.05;;;-0.40;99.90;;;;;;5086314;28;20052;-62
2021/04/13 02:54:13;;;;;;;29.17;15.20;;;-0.40;99.90;;;;;;5085439;28;20050;-62
2021/04/13 02:56:45;;;;;;;35.70;15.88;;;-0.50;99.90;;;;;;5085220;28;20040;-62
2021/04/13 02:59:16;;;;;;;28.65;14.75;;;-0.60;99.90;;;;;;5086499;28;20043;-59
2021/04/13 03:02:03;;;;;;;26.63;15.25;;;-0.40;99.90;;;;;;5085326;28;20385;-60
2021/04/13 03:07:51;;;;;;;28.73;14.90;;;-0.40;99.90;;;;;;5073451;28;20045;-63
2021/04/13 03:10:28;;;;;;;29.33;15.07;;;-0.30;99.90;;;;;;5077205;28;20088;-63
2021/04/13 03:12:55;;;;;;;26.10;14.88;;;-0.30;99.90;;;;;;5084589;28;20112;-62
2021/04/13 03:15:29;;;;;;;29.05;15.50;;;-0.30;99.90;;;;;;5085681;28;20690;-62
2021/04/13 03:18:07;;;;;;;24.42;14.48;;;-0.30;99.90;;;;;;5086210;28;20047;-62
2021/04/13 03:20:39;;;;;;;29.10;15.43;;;-0.30;99.90;;;;;;5086488;28;20066;-61
2021/04/13 03:23:07;;;;;;;27.02;15.68;;;-0.20;99.90;;;;;;5075048;28;20412;-62
2021/04/13 03:25:36;;;;;;;29.45;14.48;;;-0.20;99.90;;;;;;5077787;28;20400;-62
2021/04/13 03:28:05;;;;;;;28.15;14.73;;;-0.20;99.90;;;;;;5086160;28;20184;-61
2021/04/13 03:30:34;;;;;;;25.15;14.05;;;-0.20;99.90;;;;;;5085924;28;20450;-61
2021/04/13 03:33:39;;;;;;;30.50;15.15;;;-0.20;99.90;;;;;;5084276;28;20048;-62
2021/04/13 03:36:07;;;;;;;35.03;16.75;;;-0.20;99.90;;;;;;5062991;28;20047;-61
2021/04/13 03:38:35;;;;;;;35.38;17.10;;;-0.20;99.90;;;;;;5047803;28;20049;-61
2021/04/13 03:41:01;;;;;;;28.25;16.80;;;-0.20;99.90;;;;;;5054896;28;20076;-61
2021/04/13 03:43:30;;;;;;;28.42;16.00;;;-0.20;99.90;;;;;;5066408;28;20083;-62
2021/04/13 03:46:03;;;;;;;30.17;15.43;;;-0.10;99.90;;;;;;5085016;28;20036;-60
2021/04/13 03:48:31;;;;;;;37.45;17.83;;;-0.20;99.90;;;;;;5069584;28;20052;-61
2021/04/13 03:50:59;;;;;;;30.60;16.17;;;-0.20;99.90;;;;;;5068655;28;20040;-61
2021/04/13 03:53:45;;;;;;;33.00;16.52;;;-0.20;99.90;;;;;;5084775;28;20055;-62
2021/04/13 03:56:18;;;;;;;33.70;17.65;;;-0.20;99.90;;;;;;5090567;28;20076;-62
2021/04/13 03:58:49;;;;;;;32.58;16.40;;;-0.20;99.90;;;;;;5089562;28;20051;-61
2021/04/13 04:01:23;;;;;;;30.23;15.57;;;-0.20;99.90;;;;;;5088276;28;20089;-62
2021/04/13 04:03:58;;;;;;;34.15;17.27;;;-0.20;99.90;;;;;;5089613;28;20476;-60
2021/04/13 04:06:45;;;;;;;30.98;16.20;;;-0.30;99.90;;;;;;5089406;28;20044;-60
2021/04/13 04:09:33;;;;;;;31.35;16.38;;;-0.30;99.90;;;;;;5069926;28;20442;-59
2021/04/13 04:12:21;;;;;;;30.10;16.15;;;-0.20;99.90;;;;;;5068184;28;20105;-51
2021/04/13 04:15:09;;;;;;;30.00;16.05;;;-0.20;99.90;;;;;;5070017;28;20540;-59
2021/04/13 04:17:45;;;;;;;33.47;16.73;;;-0.10;99.90;;;;;;5080683;28;20502;-59
2021/04/13 04:20:11;;;;;;;31.75;17.42;;;-0.10;99.90;;;;;;5089786;28;20105;-59
2021/04/13 04:22:51;;;;;;;31.10;16.27;;;-0.10;99.90;;;;;;5089276;22;20397;-72
2021/04/13 04:25:41;;;;;;;32.60;17.08;;;-0.10;99.90;;;;;;5073675;28;20039;-70
2021/04/13 04:28:17;;;;;;;30.17;14.98;;;-0.10;99.90;;;;;;5073005;28;20036;-71
2021/04/13 04:30:43;;;;;;;30.00;15.23;;;-0.10;99.90;;;;;;5072700;28;20115;-72
2021/04/13 04:33:37;;;;;;;31.77;16.65;;;-0.20;99.90;;;;;;5072603;28;20181;-72
2021/04/13 04:36:29;;;;;;;28.15;15.38;;;-0.10;99.90;;;;;;5073253;28;20047;-73
2021/04/13 04:38:55;;;;;;;27.50;13.30;;;-0.10;99.90;;;;;;5072743;28;20493;-72
2021/04/13 04:41:40;;;;;;;27.15;14.70;;;-0.10;99.90;;;;;;5072468;28;20539;-70
2021/04/13 04:44:06;;;;;;;23.92;12.48;;;-0.10;99.90;;;;;;5073099;28;20023;-69
2021/04/13 04:46:42;;;;;;;31.08;13.38;;;-0.10;99.90;;;;;;5072077;28;20400;-73
2021/04/13 04:49:13;;;;;;;26.17;12.30;;;0.00;99.90;;;;;;5072846;28;20248;-73
2021/04/13 04:51:41;;;;;;;20.98;11.27;;;-0.10;99.90;;;;;;5073171;28;20040;-72
2021/04/13 04:54:08;;;;;;;23.85;11.38;;;;;;;;;;5072671;28;20100;-71
2021/04/13 04:56:35;;;;;;;18.80;10.55;;;;;;;;;;5088672;28;20388;-71
2021/04/13 04:59:02;;;;;;;19.90;11.57;;;;;;;;;;5072864;28;20032;-74
2021/04/13 05:01:28;;;;;;;27.13;12.32;;;;;;;;;;5072084;28;20069;-71
2021/04/13 05:03:57;;;;;;;34.50;18.20;;;;;;;;;;5072367;28;20044;-74
2021/04/13 05:06:24;;;;;;;36.10;15.40;;;;;;;;;;5072552;28;20090;-72
2021/04/13 05:08:50;;;;;;;24.58;10.52;;;;;;;;;;5072792;28;21009;-72
2021/04/13 05:11:17;;;;;;;22.67;9.48;;;;;;;;;;5072037;28;20032;-74
2021/04/13 05:13:43;;;;;;;18.27;10.27;;;;;;;;;;5072323;28;20145;-74
2021/04/13 05:16:10;;;;;;;52.85;27.67;;;;;;;;;;5071385;28;20044;-73
2021/04/13 05:18:37;;;;;;;42.15;21.33;;;;;;;;;;5072285;28;20495;-74
2021/04/13 05:21:03;;;;;;;27.77;12.63;;;;;;;;;;5072089;28;20065;-74
2021/04/13 05:23:29;;;;;;;77.20;36.70;;;;;;;;;;5090261;28;20158;-74
2021/04/13 05:25:56;;;;;;;23.77;10.63;;;;;;;;;;5072313;28;20036;-70
2021/04/13 05:28:22;;;;;;;22.20;10.15;;;;;;;;;;5089032;28;20129;-71
2021/04/13 05:30:50;;;;;;;25.17;9.00;;;;;;;;;;5088671;28;20484;-73
2021/04/13 05:33:17;;;;;;;14.85;6.72;;;;;;;;;;5088528;28;20135;-72
2021/04/13 05:35:43;;;;;;;21.27;11.23;;;;;;;;;;5088554;28;20043;-70
2021/04/13 05:38:12;;;;;;;12.60;7.25;;;;;;;;;;5089463;28;20047;-73
2021/04/13 05:40:39;;;;;;;15.60;8.15;;;;;;;;;;5089140;28;20047;-71
2021/04/13 05:43:06;;;;;;;26.50;11.38;;;;;;;;;;5088719;28;20127;-72
2021/04/13 05:45:33;;;;;;;21.48;10.00;;;;;;;;;;5088482;28;20396;-74
2021/04/13 05:48:00;;;;;;;25.70;12.15;;;;;;;;;;5072357;28;20429;-74
2021/04/13 05:50:32;;;;;;;21.65;10.32;;;;;;;;;;5071892;28;20039;-71
2021/04/13 05:52:58;;;;;;;16.25;7.93;;;;;;;;;;5088551;28;20051;-71
2021/04/13 05:55:24;;;;;;;20.25;7.90;;;;;;;;;;5071369;28;20043;-72
2021/04/13 05:57:52;;;;;;;17.17;8.02;;;;;;;;;;5071578;28;20040;-74
2021/04/13 06:00:20;;;;;;;23.67;10.68;;;;;;;;;;5068207;28;20040;-71
2021/04/13 06:02:46;;;;;;;27.98;13.80;;;;;;;;;;5068045;28;20040;-73
2021/04/13 06:05:13;;;;;;;33.85;14.65;;;;;;;;;;5071316;28;20040;-74
2021/04/13 06:07:40;;;;;;;21.52;10.45;;;;;;;;;;5070976;28;20036;-73
2021/04/13 06:10:07;;;;;;;16.60;9.98;;;;;;;;;;5071599;28;20043;-72
2021/04/13 06:12:39;;;;;;;19.90;9.15;;;;;;;;;;5070207;28;20097;-72
2021/04/13 06:15:06;;;;;;;19.60;9.88;;;;;;;;;;5071815;28;20039;-74
2021/04/13 06:17:33;;;;;;;16.10;9.55;;;;;;;;;;5071358;28;20051;-71
2021/04/13 06:19:59;;;;;;;14.35;8.68;;;;;;;;;;5071372;28;20040;-69
2021/04/13 06:22:25;;;;;;;18.02;10.63;;;;;;;;;;5070524;28;20046;-72
2021/04/13 06:24:51;;;;;;;24.23;11.48;;;;;;;;;;5071251;28;20078;-71
2021/04/13 06:27:17;;;;;;;24.33;11.27;;;;;;;;;;5088102;28;20044;-72
2021/04/13 06:29:44;;;;;;;15.55;9.63;;;;;;;;;;5070739;28;20036;-71
2021/04/13 06:32:10;;;;;;;20.55;10.30;;;;;;;;;;5086641;28;20704;-72
2021/04/13 06:34:37;;;;;;;17.33;9.95;;;;;;;;;;5071276;28;20043;-70
2021/04/13 06:37:05;;;;;;;28.73;16.25;;;;;;;;;;5087863;28;20070;-73
2021/04/13 06:39:32;;;;;;;48.45;26.30;;;;;;;;;;5070925;28;20036;-69
2021/04/13 06:42:06;;;;;;;26.77;12.60;;;;;;;;;;5070316;28;20098;-70
2021/04/13 06:44:42;;;;;;;20.17;11.23;;;;;;;;;;5070688;28;20036;-72
2021/04/13 06:47:24;;;;;;;32.30;12.73;;;;;;;;;;5070202;28;20040;-71
2021/04/13 06:50:12;;;;;;;23.27;8.73;;;;;;;;;;5070515;28;20096;-72
2021/04/13 06:53:00;;;;;;;31.98;13.48;;;;;;;;;;5079311;28;20058;-68
2021/04/13 06:55:26;;;;;;;21.67;9.40;;;;;;;;;;5069450;28;20040;-73
2021/04/13 06:58:11;;;;;;;16.58;8.68;;;;;;;;;;5068451;28;20043;-69
2021/04/13 07:00:40;;;;;;;19.33;9.75;;;;;;;;;;5062665;28;20093;-71
2021/04/13 07:03:13;;;;;;;22.10;9.88;;;;;;;;;;5069662;28;20739;-71
2021/04/13 07:05:45;;;;;;;23.52;12.70;;;;;;;;;;5069871;28;20476;-70
2021/04/13 07:08:50;;;;;;;28.75;13.23;;;;;;;;;;5070694;28;20039;-72
2021/04/13 07:11:26;;;;;;;24.55;10.13;;;;;;;;;;4969552;28;20117;-72
2021/04/13 07:13:59;;;;;;;19.93;8.97;;;;;;;;;;4969810;28;20112;-71
2021/04/13 07:16:28;;;;;;;19.90;10.95;;;;;;;;;;5035514;28;20292;-73
2021/04/13 07:19:08;;;;;;;26.63;14.32;;;;;;;;;;5055572;28;20041;-70
2021/04/13 07:21:34;;;;;;;23.52;10.63;;;;;;;;;;5057575;28;20123;-67
2021/04/13 07:24:05;;;;;;;22.50;10.95;;;;;;;;;;5077494;28;20493;-71
2021/04/13 07:26:32;;;;;;;19.80;8.63;;;;;;;;;;5071350;28;20106;-76
2021/04/13 07:29:03;;;;;;;21.90;8.02;;;;;;;;;;5071211;28;20235;-73
2021/04/13 07:31:48;;;;;;;24.20;8.77;;;;;;;;;;5070605;28;20036;-72
2021/04/13 07:34:14;;;;;;;16.48;7.90;;;;;;;;;;5071349;28;20036;-71
2021/04/13 07:36:46;;;;;;;12.95;7.10;;;;;;;;;;5083612;28;20028;-70
2021/04/13 07:39:16;;;;;;;25.00;11.43;;;;;;;;;;5092014;28;20040;-70
2021/04/13 07:42:06;;;;;;;16.45;7.60;;;;;;;;;;5075184;28;20122;-74
2021/04/13 07:44:39;;;;;;;22.15;6.85;;;;;;;;;;5062525;28;20047;-72
2021/04/13 07:47:26;;;;;;;21.17;10.52;;;;;;;;;;5069617;28;20507;-71
2021/04/13 07:49:59;;;;;;;14.93;7.03;;;;;;;;;;5074700;28;20120;-70
2021/04/13 07:52:27;;;;;;;22.58;10.82;;;;;;;;;;5072516;28;20040;-72
2021/04/13 07:55:15;;;;;;;31.73;13.98;;;;;;;;;;5070600;28;20043;-71
2021/04/13 07:57:55;;;;;;;19.40;6.70;;;;;;;;;;5041263;28;20033;-71
2021/04/13 08:00:27;;;;;;;14.48;5.82;;;;;;;;;;5091704;28;20048;-71
2021/04/13 08:03:17;;;;;;;17.00;5.82;;;;;;;;;;5090490;28;20036;-71
2021/04/13 08:05:47;;;;;;;9.65;5.38;;;;;;;;;;5063721;28;20051;-71
2021/04/13 08:08:23;;;;;;;15.57;5.55;;;;;;;;;;5091100;28;20477;-72
2021/04/13 08:10:50;;;;;;;24.00;12.63;;;;;;;;;;5091328;28;20493;-71
2021/04/13 08:13:27;;;;;;;19.27;7.65;;;;;;;;;;5090467;28;20274;-72
2021/04/13 08:15:55;;;;;;;12.15;5.20;;;;;;;;;;5090629;28;20038;-70
2021/04/13 08:18:24;;;;;;;17.08;5.60;;;;;;;;;;5073973;28;20036;-69
2021/04/13 08:20:50;;;;;;;14.80;5.28;;;;;;;;;;5073411;28;20049;-70
2021/04/13 08:23:22;;;;;;;20.70;6.95;;;;;;;;;;5073515;28;20043;-70
2021/04/13 08:25:50;;;;;;;20.00;7.43;;;;;;;;;;5090630;28;20070;-70
2021/04/13 08:28:16;;;;;;;16.88;5.65;;;;;;;;;;5091155;28;20028;-71
2021/04/13 08:30:51;;;;;;;18.23;6.10;;;;;;;;;;5090109;28;20044;-70
2021/04/13 08:33:20;;;;;;;17.15;5.22;;;;;;;;;;5089816;28;20089;-70
2021/04/13 08:36:01;;;;;;;15.20;5.95;;;;;;;;;;5088387;28;20069;-72
2021/04/13 08:38:38;;;;;;;28.52;6.28;;;;;;;;;;5088726;28;20515;-72
2021/04/13 08:41:09;;;;;;;12.27;4.35;;;;;;;;;;5088355;28;20047;-71
2021/04/13 08:43:56;;;;;;;15.18;5.57;;;;;;;;;;5088266;28;20040;-72
2021/04/13 08:46:27;;;;;;;21.13;5.53;;;;;;;;;;5070938;28;20062;-69
2021/04/13 08:48:59;;;;;;;10.55;4.53;;;;;;;;;;5071024;28;20063;-72
2021/04/13 08:51:45;;;;;;;9.73;3.45;;;;;;;;;;5071286;28;20050;-72
2021/04/13 08:54:28;;;;;;;12.77;4.85;;;;;;;;;;5071882;28;20039;-71
2021/04/13 08:57:16;;;;;;;19.38;3.83;;;;;;;;;;5097114;28;20036;-71
2021/04/13 08:59:44;;;;;;;11.57;3.60;;;;;;;;;;5070914;28;20044;-71
2021/04/13 09:02:11;;;;;;;14.68;4.30;;;;;;;;;;5069083;28;20032;-72
2021/04/13 09:04:37;;;;;;;12.65;3.10;;;;;;;;;;5070228;28;20028;-72
2021/04/13 09:07:06;;;;;;;16.67;4.07;;;;;;;;;;5068986;28;20048;-73
2021/04/13 09:09:32;;;;;;;12.02;3.45;;;;;;;;;;5070727;28;20035;-71
2021/04/13 09:12:17;;;;;;;10.80;3.92;;;;;;;;;;5069802;28;20084;-71
2021/04/13 09:14:50;;;;;;;11.98;3.10;;;;;;;;;;5071091;28;20093;-73
2021/04/13 09:17:20;;;;;;;11.98;2.78;;;;;;;;;;5088853;28;20496;-71
2021/04/13 09:20:04;;;;;;;11.90;2.47;;;;;;;;;;5071169;28;20032;-71
2021/04/13 09:22:36;;;;;;;15.45;2.70;;;;;;;;;;5089230;28;20044;-72
2021/04/13 09:25:30;;;;;;;13.52;3.08;;;;;;;;;;5070374;28;20043;-72
2021/04/13 09:28:04;;;;;;;10.05;3.35;;;;;;;;;;5052299;28;20043;-70
2021/04/13 09:30:51;;;;;;;10.02;2.70;;;;;;;;;;5052491;28;20047;-71
2021/04/13 09:33:21;;;;;;;12.18;2.63;;;;;;;;;;5052211;28;20063;-70
2021/04/13 09:36:14;;;;;;;12.55;2.38;;;;;;;;;;5052510;28;20194;-73
2021/04/13 09:39:06;;;;;;;13.63;3.35;;;;;;;;;;5032570;28;20048;-73
2021/04/13 09:41:44;;;;;;;8.63;2.78;;;;;;;;;;5090039;28;20044;-72
2021/04/13 09:44:29;;;;;;;15.70;3.05;;;;;;;;;;5089077;28;20088;-73
2021/04/13 09:46:56;;;;;;;13.25;3.58;;;;;;;;;;5070041;28;20040;-70
2021/04/13 09:49:28;;;;;;;13.48;2.88;;;;;;;;;;5071832;28;20036;-72
2021/04/13 09:52:15;;;;;;;9.98;2.53;;;;;;;;;;5071816;28;20043;-73
2021/04/13 09:54:44;;;;;;;11.25;2.65;;;;;;;;;;5072071;28;20044;-73
2021/04/13 09:57:22;;;;;;;9.55;2.50;;;;;;;;;;5089185;28;20036;-70
2021/04/13 10:00:00;;;;;;;6.93;2.03;;;;;;;;;;5087434;28;20656;-71
2021/04/13 10:02:45;;;;;;;13.32;2.92;;;;;;;;;;5081872;28;20040;-70
2021/04/13 10:05:15;;;;;;;9.75;2.70;;;;;;;;;;5060356;28;20044;-71
2021/04/13 10:07:48;;;;;;;14.38;3.03;;;;;;;;;;5087970;28;20028;-75
2021/04/13 10:10:23;;;;;;;11.48;2.67;;;;;;;;;;5084849;28;20064;-71
2021/04/13 10:13:08;;;;;;;13.93;2.50;;;;;;;;;;5088247;28;20048;-70
2021/04/13 10:15:44;;;;;;;8.50;3.22;;;;;;;;;;5071864;28;20400;-74
2021/04/13 10:18:28;;;;;;;10.15;2.75;;;;;;;;;;5079826;28;20043;-72
2021/04/13 10:21:14;;;;;;;12.68;2.78;;;;;;;;;;5059080;28;20110;-73
2021/04/13 10:23:59;;;;;;;9.73;2.10;;;;;;;;;;5065118;28;20032;-72
2021/04/13 10:26:52;;;;;;;11.20;2.25;;;;;;;;;;5065902;28;20511;-71
2021/04/13 10:29:19;;;;;;;8.23;2.72;;;;;;;;;;5068618;28;20036;-69
2021/04/13 10:32:04;;;;;;;45.55;23.42;;;;;;;;;;5061736;28;20032;-72
2021/04/13 10:34:36;;;;;;;9.93;3.53;;;;;;;;;;5101329;27;20119;-70
2021/04/13 10:37:22;;;;;;;8.02;2.53;;;;;;;;;;5068667;28;20437;-74
2021/04/13 10:39:48;;;;;;;8.52;2.30;;;;;;;;;;5090373;28;20043;-69
2021/04/13 10:42:33;;;;;;;9.68;2.80;;;;;;;;;;5063084;28;20503;-69
2021/04/13 10:45:14;;;;;;;12.60;3.05;;;;;;;;;;5088223;28;20028;-70
2021/04/13 10:47:40;;;;;;;10.55;3.05;;;;;;;;;;5067711;28;20067;-69
2021/04/13 10:50:26;;;;;;;14.00;2.70;;;;;;;;;;5069110;28;20055;-69
2021/04/13 10:52:53;;;;;;;;;;;;;;;;;;5063654;28;20044;-70
2021/04/13 10:55:39;;;;;;;7.83;2.60;;;;;;;;;;5071213;28;19916;-71
2021/04/13 10:58:05;;;;;;;16.42;3.33;;;;;;;;;;5059605;28;20587;-69
2021/04/13 11:00:51;;;;;;;15.73;3.10;;;;;;;;;;5069797;28;20096;-68
2021/04/13 11:03:17;;;;;;;10.63;2.78;;;;;;;;;;5027653;28;20058;-71
2021/04/13 11:06:05;;;;;;;6.07;2.13;;;;;;;;;;5068901;28;20123;-69
2021/04/13 11:08:50;;;;;;;16.48;3.20;;;;;;;;;;5065523;28;20477;-70
2021/04/13 11:11:16;;;;;;;8.27;2.38;;;;;;;;;;5067757;28;20032;-70
2021/04/13 11:14:01;;;;;;;8.20;2.00;;;;;;;;;;5064777;28;20043;-70
2021/04/13 11:16:27;;;;;;;17.48;7.63;;;;;;;;;;5061146;28;20040;-72
2021/04/13 11:19:12;;;;;;;8.18;3.20;;;;;;;;;;5070028;28;20039;-70
2021/04/13 11:21:53;;;;;;;10.25;2.40;;;;;;;;;;5061920;28;20122;-71
2021/04/13 11:24:38;;;;;;;13.88;2.70;;;;;;;;;;5070234;28;20032;-71
2021/04/13 11:27:19;;;;;;;14.13;2.40;;;;;;;;;;5086762;28;20492;-74
2021/04/13 11:30:07;;;;;;;7.53;2.35;;;;;;;;;;5084800;28;20108;-73
2021/04/13 11:32:53;;;;;;;10.32;2.58;;;;;;;;;;5078388;28;20124;-73
2021/04/13 11:35:27;;;;;;;5.75;2.30;;;;;;;;;;5092737;28;20058;-72
2021/04/13 11:38:02;;;;;;;8.82;1.75;;;;;;;;;;5082447;28;20043;-71
2021/04/13 11:40:49;;;;;;;13.55;3.33;;;;;;;;;;5065439;28;20044;-73
2021/04/13 11:43:19;;;;;;;7.60;1.98;;;;;;;;;;5064714;28;20043;-71
2021/04/13 11:46:04;;;;;;;14.32;2.70;;;;;;;;;;5064416;28;20040;-69
2021/04/13 11:48:44;;;;;;;7.63;2.25;;;;;;;;;;5066865;28;20044;-72
2021/04/13 11:51:21;;;;;;;6.97;1.80;;;;;;;;;;5066175;28;20114;-71
2021/04/13 11:53:49;;;;;;;11.07;2.60;;;;;;;;;;5063613;28;20480;-69
2021/04/13 11:56:21;;;;;;;10.40;2.97;;;;;;;;;;5061040;28;20441;-70
2021/04/13 11:59:06;;;;;;;3.67;1.10;;;;;;;;;;5061474;28;20124;-72
2021/04/13 12:01:32;;;;;;;7.25;1.98;;;;;;;;;;5054908;28;20041;-70
2021/04/13 12:04:22;;;;;;;7.32;1.33;;;;;;;;;;5068167;28;20134;-70
2021/04/13 12:06:49;;;;;;;8.23;1.73;;;;;;;;;;5064083;28;20044;-73
2021/04/13 12:09:35;;;;;;;5.53;1.70;;;;;;;;;;5069863;28;20070;-73
2021/04/13 12:12:01;;;;;;;11.88;1.70;;;;;;;;;;5071834;28;20044;-72
2021/04/13 12:14:30;;;;;;;4.65;1.75;;;;;;;;;;5076202;28;20044;-71
2021/04/13 12:17:05;;;;;;;5.95;1.42;;;;;;;;;;5075786;28;20040;-70
2021/04/13 12:19:31;;;;;;;10.48;2.42;;;;;;;;;;5073281;28;20548;-70
2021/04/13 12:21:59;;;;;;;6.32;1.80;;;;;;;;;;5071070;28;20032;-69
2021/04/13 12:24:45;;;;;;;10.77;2.25;;;;;;;;;;5053729;28;20036;-72
2021/04/13 12:27:44;;;;;;;4.63;1.55;;;;;;;;;;5070459;28;20047;-69
2021/04/13 12:30:22;;;;;;;13.38;4.38;;;;;;;;;;5046482;28;20102;-71
2021/04/13 12:32:50;;;;;;;7.57;2.57;;;;;;;;;;5070386;28;20032;-85
2021/04/13 12:35:49;;;;;;;7.15;1.83;;;;;;;;;;5067987;28;20032;-73
2021/04/13 12:38:34;;;;;;;6.55;1.88;;;;;;;;;;5027682;28;20105;-73
2021/04/13 12:41:09;;;;;;;4.88;1.73;;;;;;;;;;5067058;28;20059;-72
2021/04/13 12:43:42;;;;;;;5.20;1.85;;;;;;;;;;5067127;28;20032;-74
2021/04/13 12:46:24;;;;;;;4.60;1.63;;;;;;;;;;5062020;28;20040;-72
2021/04/13 12:48:51;;;;;;;13.40;2.08;;;;;;;;;;5087338;28;20124;-73
2021/04/13 12:51:24;;;;;;;13.15;1.92;;;;;;;;;;5085744;28;20040;-74
2021/04/13 12:53:50;;;;;;;6.68;1.60;;;;;;;;;;5070555;28;20792;-74
2021/04/13 12:56:30;;;;;;;4.28;1.60;;;;;;;;;;5071128;28;20043;-75
2021/04/13 12:59:06;;;;;;;11.98;2.55;;;;;;;;;;5070178;28;20540;-74
2021/04/13 13:01:40;;;;;;;10.38;1.65;;;;;;;;;;5068514;28;20072;-72
2021/04/13 13:04:09;;;;;;;6.68;1.73;;;;;;;;;;5056993;28;20040;-75
2021/04/13 13:06:35;;;;;;;5.88;1.58;;;;;;;;;;5062676;28;20572;-74
2021/04/13 13:09:20;;;;;;;8.15;1.77;;;;;;;;;;5054876;28;20040;-73
2021/04/13 13:11:55;;;;;;;9.80;2.00;;;;;;;;;;5049397;28;20093;-72
2021/04/13 13:14:22;;;;;;;11.10;1.83;;;;;;;;;;5051126;28;20135;-73
2021/04/13 13:16:53;;;;;;;5.32;1.63;;;;;;;;;;5068832;28;20041;-75
2021/04/13 13:19:31;;;;;;;4.15;1.50;;;;;;;;;;5066708;28;20028;-75
2021/04/13 13:21:59;;;;;;;7.10;1.58;;;;;;;;;;5071062;28;20028;-73
2021/04/13 13:24:27;;;;;;;3.22;1.23;;;;;;;;;;5071841;28;20039;-75
2021/04/13 13:26:54;;;;;;;4.55;1.55;;;;;;;;;;5072358;28;20040;-71
2021/04/13 13:29:20;;;;;;;7.05;1.50;;;;;;;;;;5089493;28;20043;-73
2021/04/13 13:31:48;;;;;;;5.18;1.35;;;;;;;;;;5071268;28;20500;-74
2021/04/13 13:34:19;;;;;;;6.20;1.40;;;;;;;;;;5090439;28;20032;-71
2021/04/13 13:36:47;;;;;;;7.35;1.45;;;;;;;;;;5072691;28;20115;-72
2021/04/13 13:39:15;;;;;;;10.55;1.35;;;;;;;;;;5072333;28;20128;-74
2021/04/13 13:41:44;;;;;;;6.82;1.13;;;;;;;;;;5089274;28;20130;-72
2021/04/13 13:44:18;;;;;;;9.57;1.25;;;;;;;;;;5090653;28;20036;-80
2021/04/13 13:46:56;;;;;;;5.63;1.00;;;;;;;;;;5095195;28;20048;-73
2021/04/13 13:49:41;;;;;;;6.20;1.45;;;;;;;;;;5089311;28;20048;-70
2021/04/13 13:52:11;;;;;;;7.40;1.10;;;;;;;;;;5088406;28;20036;-73
2021/04/13 13:54:38;;;;;;;5.22;1.13;;;;;;;;;;5080753;28;20039;-71
2021/04/13 13:57:18;;;;;;;6.60;1.35;;;;;;;;;;5088954;28;20097;-70
2021/04/13 13:59:54;;;;;;;10.90;1.88;;;;;;;;;;5072093;28;20063;-74
2021/04/13 14:02:20;;;;;;;5.43;1.10;;;;;;;;;;5071041;28;20040;-72
2021/04/13 14:04:46;;;;;;;5.90;1.98;;;;;;;;;;5071250;28;20399;-71
2021/04/13 14:07:24;;;;;;;7.13;1.42;;;;;;;;;;5071162;28;20071;-72
2021/04/13 14:09:51;;;;;;;3.83;1.00;;;;;;;;;;5071394;28;20044;-71
2021/04/13 14:12:32;;;;;;;6.88;1.50;;;;;;;;;;5069351;28;20034;-72
2021/04/13 14:14:58;;;;;;;9.07;2.80;;;;;;;;;;5077204;28;20491;-73
2021/04/13 14:17:34;;;;;;;7.88;1.20;;;;;;;;;;5062799;28;20119;-72
2021/04/13 14:20:14;;;;;;;10.20;1.47;;;;;;;;;;5087677;28;20040;-72
2021/04/13 14:22:41;;;;;;;4.35;0.85;;;;;;;;;;5063931;28;20278;-70
2021/04/13 14:25:39;;;;;;;2.60;0.75;;;;;;;;;;5070398;28;20047;-73
2021/04/13 14:28:07;;;;;;;4.70;1.00;;;;;;;;;;5024052;28;20052;-71
2021/04/13 14:30:33;;;;;;;4.88;1.00;;;;;;;;;;5054747;28;20077;-72